EFKK/KOK METAR and TAF weather

Enter ICAO airport designator
Station Type Date Time Source
EFKK METAR 2019/08/21 22:20 UTC NOAA

EFKK 212220Z AUTO 18005KT CAVOK 11/11 Q1017


Station Type Date Time Source
EFKK Decoded METAR 2019/08/21 22:20 UTC NOAA

Station name not available
Aug 21, 2019 - 06:20 PM EDT / 2019.08.21 2220 UTC
Wind: from the S (180 degrees) at 6 MPH (5 KT):0
Visibility: greater than 7 mile(s):0
Temperature: 51 F (11 C)
Dew Point: 51 F (11 C)
Relative Humidity: 100%
Pressure (altimeter): 30.03 in. Hg (1017 hPa)
ob: EFKK 212220Z AUTO 18005KT CAVOK 11/11 Q1017
cycle: 22

Station Type Date Time Source
EFKK TAF 2019/04/22 21:42 UTC NOAA

TAF EFKK 222023Z 2221/2321 18006KT CAVOK

Example: see airport list